EFMA

Mariehamn Airport

Finland
TAF EFMA 201727Z 2018/2103 20012KT CAVOK
Issued Valid From Valid To
Sep-20 @ 17:27 UTC
(an hour ago)
Sep-20 @ 18:00 UTC
(34 minutes ago)
Sep-21 @ 03:00 UTC
(in 8 hours)
Sep-20 @ 18:00 to Sep-21 @ 03:00
TAF EFMA 201727Z 2018/2103 20012KT CAVOK
Wind Visibility Clouds Conditions
200° at 12 knots 10,000+ meters
  • No significant clouds
TAF EFMA 201727Z 2018/2103 20012KT CAVOK
Issued Sep-20 @ 17:27 UTC
(an hour ago)
Valid From Sep-20 @ 18:00 UTC
(34 minutes ago)
Valid To Sep-21 @ 03:00 UTC
(in 8 hours)
Sep-20 @ 18:00 - Sep-21 @ 03:00
Wind Visibility
200° at 12 knots 10,000+ meters
Clouds
  • No significant clouds
Conditions